createdAt,value
2019-02-26T00:01:30.391Z,0.88
2019-02-26T00:03:59.846Z,0.81
2019-02-26T00:06:30.232Z,0.78
2019-02-26T00:09:01.945Z,0.87
2019-02-26T00:11:48.855Z,0.76
2019-02-26T00:14:20.320Z,0.73
2019-02-26T00:17:10.535Z,0.76
2019-02-26T00:19:56.578Z,0.66
2019-02-26T00:22:45.330Z,0.66
2019-02-26T00:25:15.311Z,0.64
2019-02-26T00:28:04.047Z,0.62
2019-02-26T00:30:35.491Z,0.65
2019-02-26T00:33:05.233Z,0.63
2019-02-26T00:35:34.714Z,0.60
2019-02-26T00:38:04.002Z,0.54
2019-02-26T00:40:34.945Z,0.62
2019-02-26T00:43:25.389Z,0.62
2019-02-26T00:45:57.981Z,0.61
2019-02-26T00:48:43.179Z,0.72
2019-02-26T00:51:12.554Z,0.66
2019-02-26T00:53:41.959Z,0.67
2019-02-26T00:56:11.342Z,0.85
2019-02-26T00:58:41.544Z,0.78
2019-02-26T01:01:12.978Z,0.71
2019-02-26T01:04:00.806Z,0.74
2019-02-26T01:06:31.175Z,0.85
2019-02-26T01:09:03.638Z,0.70
2019-02-26T01:11:32.536Z,0.77
2019-02-26T01:14:01.838Z,0.62
2019-02-26T01:16:31.142Z,0.71
2019-02-26T01:19:00.474Z,0.62
2019-02-26T01:21:31.230Z,0.54
2019-02-26T01:24:18.996Z,0.57
2019-02-26T01:26:48.303Z,0.55
2019-02-26T01:29:20.514Z,0.56
2019-02-26T01:32:08.909Z,0.33
2019-02-26T01:34:56.013Z,0.44
2019-02-26T01:37:27.698Z,0.37
2019-02-26T01:39:56.564Z,0.27
2019-02-26T01:42:27.171Z,0.42
2019-02-26T01:45:15.090Z,0.27
2019-02-26T01:47:47.615Z,0.18
2019-02-26T01:50:35.690Z,0.13
2019-02-26T01:53:05.704Z,0.23
2019-02-26T01:55:35.015Z,0.21
2019-02-26T01:58:04.426Z,0.08
2019-02-26T02:00:33.728Z,0.28
2019-02-26T02:05:48.037Z,0.34
2019-02-26T02:08:39.296Z,0.36
2019-02-26T02:11:28.314Z,0.35
2019-02-26T02:13:56.046Z,0.34
2019-02-26T02:16:28.548Z,0.32
2019-02-26T02:18:58.196Z,0.36
2019-02-26T02:21:30.431Z,-0.10
2019-02-26T02:24:18.085Z,-0.09
2019-02-26T02:26:50.449Z,-0.08
2019-02-26T02:29:37.660Z,0.06
2019-02-26T02:32:07.751Z,0.16
2019-02-26T02:34:40.051Z,-0.17
2019-02-26T02:37:08.447Z,-0.11
2019-02-26T02:39:37.755Z,-0.04
2019-02-26T02:42:08.391Z,-0.22
2019-02-26T02:44:39.164Z,-0.22
2019-02-26T02:47:30.379Z,-0.06
2019-02-26T02:50:18.482Z,0.00
2019-02-26T02:52:47.885Z,-0.12
2019-02-26T02:55:19.305Z,-0.12
2019-02-26T02:58:06.440Z,0.00
2019-02-26T03:00:35.856Z,0.07
2019-02-26T03:03:05.199Z,-0.08
2019-02-26T03:05:37.461Z,-0.01
2019-02-26T03:08:23.710Z,-0.38
2019-02-26T03:10:53.021Z,-0.48
2019-02-26T03:13:24.844Z,-0.33
2019-02-26T03:16:13.411Z,-0.38
2019-02-26T03:19:00.746Z,-0.59
2019-02-26T03:21:30.668Z,-0.49
2019-02-26T03:24:19.287Z,-0.30
2019-02-26T03:26:48.599Z,-0.19
2019-02-26T03:29:17.903Z,-0.15
2019-02-26T03:31:54.826Z,-0.15
2019-02-26T03:34:36.430Z,-0.28
2019-02-26T03:37:08.155Z,-0.30
2019-02-26T03:39:57.325Z,-0.45
2019-02-26T03:42:46.275Z,-0.19
2019-02-26T03:45:15.791Z,-0.24
2019-02-26T03:47:45.105Z,-0.13
2019-02-26T03:50:14.553Z,-0.34
2019-02-26T03:52:43.972Z,-0.54
2019-02-26T03:55:15.455Z,-0.50
2019-02-26T03:58:02.893Z,-0.34
2019-02-26T04:00:34.602Z,-0.46
2019-02-26T04:03:21.401Z,-0.52
2019-02-26T04:05:50.803Z,-0.61
2019-02-26T04:08:22.493Z,-0.48
2019-02-26T04:11:09.412Z,-0.36
2019-02-26T04:13:38.718Z,-0.58
2019-02-26T04:16:08.017Z,-0.56
2019-02-26T04:18:37.547Z,-0.36
2019-02-26T04:21:09.476Z,-0.40
2019-02-26T04:23:38.847Z,-0.69
2019-02-26T04:27:06.067Z,-0.63
2019-02-26T04:30:02.673Z,-0.49
2019-02-26T04:33:11.623Z,-0.27
2019-02-26T04:36:11.697Z,-0.50
2019-02-26T04:39:39.418Z,-0.56
2019-02-26T04:42:45.952Z,-0.62
2019-02-26T04:45:53.521Z,-0.52
2019-02-26T04:48:26.975Z,-0.43
2019-02-26T04:50:55.334Z,-0.47
2019-02-26T04:53:25.977Z,-0.40
2019-02-26T04:59:17.663Z,-0.57
2019-02-26T05:01:49.076Z,-0.52
2019-02-26T05:04:18.340Z,-0.49
2019-02-26T05:06:47.646Z,-0.54
2019-02-26T05:09:16.956Z,-0.80
2019-02-26T05:11:46.258Z,-0.58
2019-02-26T05:14:20.800Z,-0.50
2019-02-26T05:17:04.769Z,-0.78
2019-02-26T05:19:36.279Z,-0.81
2019-02-26T05:22:25.589Z,-1.13
2019-02-26T05:25:16.312Z,-1.40
2019-02-26T05:28:03.746Z,-1.49
2019-02-26T05:30:51.415Z,-1.51
2019-02-26T05:33:40.197Z,-1.39
2019-02-26T05:36:11.627Z,-1.47
2019-02-26T05:39:00.365Z,-1.42
2019-02-26T05:41:52.328Z,-1.64
2019-02-26T05:44:37.112Z,-1.53
2019-02-26T05:47:06.434Z,-1.65
2019-02-26T05:49:38.629Z,-1.69
2019-02-26T05:52:27.361Z,-1.58
2019-02-26T05:55:16.784Z,-1.77
2019-02-26T05:58:03.390Z,-1.79
2019-02-26T06:00:33.386Z,-1.69
2019-02-26T06:03:21.903Z,-1.48
2019-02-26T06:05:51.965Z,-1.47
2019-02-26T06:08:25.652Z,-1.46
2019-02-26T06:11:11.690Z,-1.40
2019-02-26T06:13:43.177Z,-1.38
2019-02-26T06:16:31.464Z,-1.46
2019-02-26T06:19:44.755Z,-1.24
2019-02-26T06:22:17.171Z,-1.11
2019-02-26T06:24:44.935Z,-1.15
2019-02-26T06:30:17.042Z,-1.14
2019-02-26T06:32:46.361Z,-0.94
2019-02-26T06:35:16.488Z,-0.96
2019-02-26T06:38:06.841Z,-0.64
2019-02-26T06:40:54.216Z,-0.62
2019-02-26T06:43:23.549Z,-0.47
2019-02-26T06:45:52.840Z,-0.31
2019-02-26T06:48:24.526Z,-0.34
2019-02-26T06:51:11.407Z,-0.32
2019-02-26T06:53:40.733Z,-0.30
2019-02-26T06:56:10.063Z,-0.37
2019-02-26T06:58:41.133Z,-0.19
2019-02-26T07:01:12.025Z,-0.11
2019-02-26T07:03:59.928Z,0.06
2019-02-26T07:06:30.187Z,0.08
2019-02-26T07:09:20.386Z,0.16
2019-02-26T07:12:07.671Z,0.23
2019-02-26T07:14:36.982Z,0.34
2019-02-26T07:17:06.316Z,0.49
2019-02-26T07:19:36.355Z,0.54
2019-02-26T07:22:08.477Z,0.55
2019-02-26T07:24:56.075Z,0.73
2019-02-26T07:27:26.492Z,0.81
2019-02-26T07:30:14.638Z,0.85
2019-02-26T07:32:47.647Z,0.96
2019-02-26T07:35:35.011Z,1.05
2019-02-26T07:38:23.050Z,1.19
2019-02-26T07:41:11.727Z,1.33
2019-02-26T07:43:43.918Z,1.48
2019-02-26T07:46:30.251Z,1.60
2019-02-26T07:49:01.894Z,1.84
2019-02-26T07:51:48.784Z,1.96
2019-02-26T07:54:18.365Z,2.03
2019-02-26T07:56:47.670Z,2.24
2019-02-26T07:59:17.002Z,2.24
2019-02-26T08:01:47.110Z,2.40
2019-02-26T08:04:36.358Z,2.56
2019-02-26T08:07:26.762Z,2.63
2019-02-26T08:10:37.238Z,2.79
2019-02-26T08:13:26.135Z,2.99
2019-02-26T08:16:12.928Z,3.02
2019-02-26T08:18:42.266Z,3.12
2019-02-26T08:21:11.634Z,3.27
2019-02-26T08:23:41.307Z,3.33
2019-02-26T08:26:30.186Z,3.37
2019-02-26T08:29:00.234Z,3.51
2019-02-26T08:31:49.525Z,3.58
2019-02-26T08:34:39.788Z,3.72
2019-02-26T08:37:27.147Z,3.87
2019-02-26T08:39:57.756Z,3.86
2019-02-26T08:42:45.709Z,3.94
2019-02-26T08:45:17.863Z,3.98
2019-02-26T08:47:46.912Z,4.11
2019-02-26T08:50:15.432Z,4.20
2019-02-26T08:52:47.128Z,4.28
2019-02-26T08:55:17.687Z,4.32
2019-02-26T08:58:04.386Z,4.37
2019-02-26T09:00:34.329Z,4.41
2019-02-26T09:03:22.030Z,4.46
2019-02-26T09:05:51.587Z,4.55
2019-02-26T09:08:40.615Z,4.61
2019-02-26T09:11:31.222Z,4.55
2019-02-26T09:14:18.095Z,4.62
2019-02-26T09:17:07.738Z,4.77
2019-02-26T09:22:40.607Z,4.78
2019-02-26T09:25:31.334Z,4.87
2019-02-26T09:28:20.014Z,4.86
2019-02-26T09:31:09.657Z,4.85
2019-02-26T09:33:56.677Z,4.77
2019-02-26T09:36:26.208Z,4.84
2019-02-26T09:38:55.777Z,4.88
2019-02-26T09:41:24.200Z,4.96
2019-02-26T09:43:52.640Z,4.98
2019-02-26T09:46:22.011Z,5.05
2019-02-26T09:48:51.331Z,5.07
2019-02-26T09:51:19.752Z,5.15
2019-02-26T09:53:50.141Z,5.15
2019-02-26T09:56:37.715Z,5.22
2019-02-26T09:59:07.184Z,5.40
2019-02-26T10:01:56.528Z,5.48
2019-02-26T10:04:45.521Z,5.46
2019-02-26T10:07:36.233Z,5.47
2019-02-26T10:10:25.365Z,5.64
2019-02-26T10:13:12.589Z,5.76
2019-02-26T10:15:42.812Z,5.84
2019-02-26T10:18:32.992Z,5.95
2019-02-26T10:21:20.719Z,5.99
2019-02-26T10:24:09.621Z,6.03
2019-02-26T10:26:39.331Z,6.14
2019-02-26T10:29:27.460Z,6.17
2019-02-26T10:31:56.729Z,6.28
2019-02-26T10:34:45.134Z,6.46
2019-02-26T10:37:14.526Z,6.44
2019-02-26T10:39:44.583Z,6.45
2019-02-26T10:42:39.615Z,6.59
2019-02-26T10:45:23.717Z,6.73
2019-02-26T10:47:54.359Z,6.92
2019-02-26T10:50:45.483Z,6.93
2019-02-26T10:53:31.521Z,7.04
2019-02-26T10:56:00.184Z,7.06
2019-02-26T10:58:29.509Z,7.19
2019-02-26T11:00:59.383Z,7.17
2019-02-26T11:03:49.138Z,7.24
2019-02-26T11:06:38.907Z,7.36
2019-02-26T11:09:29.278Z,7.41
2019-02-26T11:12:14.832Z,7.57
2019-02-26T11:14:44.331Z,7.64
2019-02-26T11:17:12.907Z,7.62
2019-02-26T11:19:41.933Z,7.72
2019-02-26T11:22:10.408Z,7.75
2019-02-26T11:24:39.729Z,7.81
2019-02-26T11:27:09.066Z,7.81
2019-02-26T11:29:40.654Z,7.91
2019-02-26T11:32:30.000Z,8.08
2019-02-26T11:35:17.685Z,8.10
2019-02-26T11:38:06.168Z,8.20
2019-02-26T11:40:34.696Z,8.38
2019-02-26T11:43:11.296Z,8.32
2019-02-26T11:48:32.703Z,8.47
2019-02-26T11:51:20.038Z,8.52
2019-02-26T11:54:10.134Z,8.57
2019-02-26T11:56:57.017Z,8.46
2019-02-26T11:59:26.339Z,8.39
2019-02-26T12:01:57.271Z,8.44
2019-02-26T12:04:44.085Z,8.33
2019-02-26T12:07:12.616Z,8.34
2019-02-26T12:09:43.272Z,8.38
2019-02-26T12:12:33.690Z,8.46
2019-02-26T12:15:20.399Z,8.43
2019-02-26T12:17:51.627Z,8.20
2019-02-26T12:20:40.944Z,8.17
2019-02-26T12:23:28.188Z,8.20
2019-02-26T12:25:59.237Z,8.29
2019-02-26T12:28:45.952Z,8.13
2019-02-26T12:31:15.278Z,8.16
2019-02-26T12:33:44.609Z,8.18
2019-02-26T12:39:16.190Z,8.27
2019-02-26T12:42:04.236Z,8.54
2019-02-26T12:44:37.418Z,10.29
2019-02-26T12:47:24.624Z,10.52
2019-02-26T12:50:13.912Z,9.41
2019-02-26T12:52:44.572Z,9.24
2019-02-26T12:55:35.062Z,9.39
2019-02-26T12:58:23.683Z,9.32
2019-02-26T13:01:10.355Z,9.17
2019-02-26T13:03:42.837Z,9.18
2019-02-26T13:06:29.107Z,9.15
2019-02-26T13:08:57.629Z,9.23
2019-02-26T13:11:27.003Z,9.15
2019-02-26T13:13:56.421Z,9.28
2019-02-26T13:16:25.766Z,9.47
2019-02-26T13:18:58.362Z,9.58
2019-02-26T13:21:44.368Z,9.57
2019-02-26T13:24:17.511Z,9.53
2019-02-26T13:27:02.271Z,9.48
2019-02-26T13:29:31.402Z,9.39
2019-02-26T13:32:21.394Z,9.39
2019-02-26T13:34:52.507Z,9.35
2019-02-26T13:37:21.196Z,9.36
2019-02-26T13:39:50.018Z,9.29
2019-02-26T13:42:19.733Z,9.73
2019-02-26T13:45:10.445Z,9.99
2019-02-26T13:47:39.115Z,9.67
2019-02-26T13:52:53.735Z,9.44
2019-02-26T13:55:23.262Z,9.48
2019-02-26T13:57:52.798Z,9.53
2019-02-26T14:00:26.457Z,9.47
2019-02-26T14:02:52.602Z,9.42
2019-02-26T14:05:21.313Z,9.34
2019-02-26T14:07:50.740Z,9.31
2019-02-26T14:10:20.146Z,9.36
2019-02-26T14:12:49.560Z,9.94
2019-02-26T14:15:20.440Z,10.43
2019-02-26T14:17:49.280Z,10.79
2019-02-26T14:20:18.608Z,10.00
2019-02-26T14:25:50.734Z,9.68
2019-02-26T14:28:20.080Z,9.53
2019-02-26T14:30:49.514Z,9.61
2019-02-26T14:33:18.150Z,9.57
2019-02-26T14:35:47.473Z,9.45
2019-02-26T14:38:16.852Z,9.32
2019-02-26T14:40:46.175Z,9.22
2019-02-26T14:43:15.094Z,9.14
2019-02-26T14:45:43.523Z,9.18
2019-02-26T14:48:13.847Z,9.20
2019-02-26T14:51:02.322Z,9.20
2019-02-26T14:53:31.151Z,10.62
2019-02-26T14:56:00.470Z,9.79
2019-02-26T14:58:29.830Z,9.51
2019-02-26T15:01:00.441Z,9.32
2019-02-26T15:03:48.404Z,9.14
2019-02-26T15:06:17.731Z,9.12
2019-02-26T15:08:47.081Z,9.02
2019-02-26T15:11:16.397Z,9.01
2019-02-26T15:13:45.238Z,8.92
2019-02-26T15:16:14.571Z,8.99
2019-02-26T15:18:43.925Z,8.89
2019-02-26T15:21:13.246Z,8.93
2019-02-26T15:23:42.679Z,8.86
2019-02-26T15:26:12.007Z,8.76
2019-02-26T15:29:01.706Z,8.87
2019-02-26T15:31:30.388Z,8.87
2019-02-26T15:33:59.020Z,8.82
2019-02-26T15:36:27.640Z,8.84
2019-02-26T15:38:56.965Z,8.86
2019-02-26T15:41:26.296Z,8.84
2019-02-26T15:43:56.500Z,8.73
2019-02-26T15:46:44.924Z,8.80
2019-02-26T15:49:14.261Z,8.68
2019-02-26T15:51:43.911Z,8.74
2019-02-26T15:54:13.215Z,8.71
2019-02-26T15:56:42.548Z,8.71
2019-02-26T15:59:11.873Z,8.69
2019-02-26T16:01:41.228Z,8.66
2019-02-26T16:04:09.748Z,8.66
2019-02-26T16:06:38.265Z,8.65
2019-02-26T16:12:09.584Z,8.54
2019-02-26T16:14:38.912Z,8.50
2019-02-26T16:17:28.188Z,8.53
2019-02-26T16:19:57.552Z,8.47
2019-02-26T16:22:26.886Z,8.47
2019-02-26T16:24:56.216Z,8.61
2019-02-26T16:27:25.542Z,8.66
2019-02-26T16:29:54.883Z,8.73
2019-02-26T16:32:24.217Z,8.72
2019-02-26T16:34:53.036Z,8.58
2019-02-26T16:37:21.572Z,8.70
2019-02-26T16:39:50.894Z,8.50
2019-02-26T16:42:20.353Z,8.53
2019-02-26T16:44:49.690Z,8.63
2019-02-26T16:47:19.148Z,8.69
2019-02-26T16:49:48.566Z,8.59
2019-02-26T16:52:17.905Z,8.55
2019-02-26T16:54:46.823Z,8.49
2019-02-26T16:57:15.456Z,8.33
2019-02-26T16:59:44.785Z,8.20
2019-02-26T17:02:14.367Z,8.14
2019-02-26T17:04:43.397Z,8.06
2019-02-26T17:07:12.746Z,7.99
2019-02-26T17:09:42.047Z,7.96
2019-02-26T17:12:11.475Z,7.91
2019-02-26T17:14:40.805Z,7.96
2019-02-26T17:17:10.119Z,7.96
2019-02-26T17:19:39.435Z,8.07
2019-02-26T17:22:08.750Z,8.16
2019-02-26T17:24:37.290Z,8.04
2019-02-26T17:27:06.487Z,8.14
2019-02-26T17:29:35.150Z,8.04
2019-02-26T17:32:04.870Z,8.05
2019-02-26T17:34:55.660Z,8.02
2019-02-26T17:37:43.047Z,7.95
2019-02-26T17:40:13.043Z,7.95
2019-02-26T17:42:42.174Z,7.92
2019-02-26T17:45:13.264Z,7.87
2019-02-26T17:47:42.566Z,7.79
2019-02-26T17:50:32.057Z,7.91
2019-02-26T17:53:01.376Z,7.89
2019-02-26T17:55:30.688Z,7.85
2019-02-26T17:58:00.685Z,7.85
2019-02-26T18:00:52.603Z,7.81
2019-02-26T18:03:21.370Z,7.83
2019-02-26T18:05:51.679Z,8.10
2019-02-26T18:08:20.537Z,8.01
2019-02-26T18:10:49.348Z,7.93
2019-02-26T18:13:20.511Z,7.95
2019-02-26T18:16:09.364Z,7.97
2019-02-26T18:18:56.733Z,7.82
2019-02-26T18:21:26.052Z,7.81
2019-02-26T18:23:55.393Z,7.81
2019-02-26T18:26:24.726Z,7.82
2019-02-26T18:28:54.075Z,7.82
2019-02-26T18:31:26.464Z,7.82
2019-02-26T18:34:14.044Z,7.74
2019-02-26T18:37:01.912Z,7.79
2019-02-26T18:39:32.471Z,7.73
2019-02-26T18:42:01.567Z,7.68
2019-02-26T18:44:29.995Z,7.70
2019-02-26T18:46:59.326Z,7.69
2019-02-26T18:49:28.660Z,7.77
2019-02-26T18:51:57.989Z,7.74
2019-02-26T18:54:27.303Z,7.63
2019-02-26T18:56:56.629Z,7.71
2019-02-26T18:59:25.944Z,7.69
2019-02-26T19:01:55.262Z,7.66
2019-02-26T19:04:24.599Z,7.66
2019-02-26T19:06:53.210Z,7.58
2019-02-26T19:09:22.572Z,7.61
2019-02-26T19:11:51.902Z,7.60
2019-02-26T19:14:21.473Z,7.56
2019-02-26T19:16:54.218Z,7.60
2019-02-26T19:19:42.053Z,7.60
2019-02-26T19:22:29.310Z,7.55
2019-02-26T19:24:58.638Z,7.54
2019-02-26T19:27:27.957Z,7.48
2019-02-26T19:29:57.275Z,7.50
2019-02-26T19:32:26.878Z,7.44
2019-02-26T19:34:56.223Z,7.42
2019-02-26T19:37:24.644Z,7.43
2019-02-26T19:39:53.962Z,7.44
2019-02-26T19:42:23.291Z,7.48
2019-02-26T19:44:52.611Z,7.42
2019-02-26T19:47:22.770Z,7.41
2019-02-26T19:50:11.966Z,7.41
2019-02-26T19:53:02.457Z,7.37
2019-02-26T19:55:50.069Z,7.32
2019-02-26T19:58:40.963Z,7.35
2019-02-26T20:01:28.275Z,7.38
2019-02-26T20:03:56.805Z,7.27
2019-02-26T20:06:26.865Z,7.30
2019-02-26T20:11:56.270Z,7.22
2019-02-26T20:14:48.564Z,7.19
2019-02-26T20:17:35.449Z,7.12
2019-02-26T20:20:40.791Z,7.15
2019-02-26T20:23:06.992Z,7.15
2019-02-26T20:25:36.317Z,7.06
2019-02-26T20:28:05.913Z,7.20
2019-02-26T20:30:54.867Z,7.15
2019-02-26T20:33:24.240Z,7.20
2019-02-26T20:35:53.575Z,7.15
2019-02-26T20:38:22.891Z,7.10
2019-02-26T20:40:52.303Z,7.13
2019-02-26T20:43:21.628Z,7.05
2019-02-26T20:45:51.729Z,7.02
2019-02-26T20:48:20.523Z,7.02
2019-02-26T20:50:48.953Z,7.02
2019-02-26T20:53:18.265Z,7.01
2019-02-26T20:55:52.556Z,7.04
2019-02-26T20:58:36.902Z,7.05
2019-02-26T21:01:06.290Z,7.01
2019-02-26T21:03:35.008Z,7.00
2019-02-26T21:06:03.530Z,7.02
2019-02-26T21:08:32.937Z,6.95
2019-02-26T21:11:01.381Z,6.93
2019-02-26T21:13:29.887Z,6.99
2019-02-26T21:15:59.214Z,6.88
2019-02-26T21:21:31.568Z,6.93
2019-02-26T21:24:00.910Z,6.79
2019-02-26T21:26:52.622Z,6.83
2019-02-26T21:29:38.859Z,6.75
2019-02-26T21:32:28.071Z,6.82
2019-02-26T21:34:57.457Z,6.74
2019-02-26T21:37:26.783Z,6.75
2019-02-26T21:39:56.136Z,6.78
2019-02-26T21:42:28.681Z,6.66
2019-02-26T21:44:54.950Z,6.73
2019-02-26T21:47:23.504Z,6.75
2019-02-26T21:49:51.926Z,6.68
2019-02-26T21:52:21.242Z,6.72
2019-02-26T21:54:50.570Z,6.72
2019-02-26T21:57:21.767Z,6.93
2019-02-26T22:00:12.008Z,6.81
2019-02-26T22:02:40.732Z,6.63
2019-02-26T22:05:09.229Z,6.69
2019-02-26T22:07:37.748Z,6.65
2019-02-26T22:10:08.664Z,6.58
2019-02-26T22:12:37.171Z,6.75
2019-02-26T22:15:10.093Z,6.81
2019-02-26T22:17:36.593Z,6.65
2019-02-26T22:20:09.181Z,6.63
2019-02-26T22:25:57.879Z,6.58
2019-02-26T22:28:26.299Z,6.60
2019-02-26T22:30:55.948Z,6.50
2019-02-26T22:33:46.180Z,6.63
2019-02-26T22:36:34.018Z,6.69
2019-02-26T22:39:23.338Z,6.64
2019-02-26T22:42:11.808Z,6.58
2019-02-26T22:44:41.119Z,6.63
2019-02-26T22:47:09.532Z,6.58
2019-02-26T22:49:38.046Z,6.56
2019-02-26T22:52:06.456Z,6.58
2019-02-26T22:54:35.769Z,6.52
2019-02-26T22:57:04.291Z,6.58
2019-02-26T22:59:33.598Z,6.56
2019-02-26T23:02:03.255Z,6.57
2019-02-26T23:04:31.928Z,6.58
2019-02-26T23:07:04.441Z,6.60
2019-02-26T23:09:52.444Z,6.67
2019-02-26T23:18:39.729Z,6.60
2019-02-26T23:21:10.238Z,6.67
2019-02-26T23:23:38.771Z,6.56
2019-02-26T23:26:08.839Z,6.64
2019-02-26T23:31:51.853Z,6.59
2019-02-26T23:34:22.597Z,6.59
2019-02-26T23:39:53.640Z,6.60
2019-02-26T23:42:22.591Z,6.48
2019-02-26T23:44:51.589Z,6.55
2019-02-26T23:47:20.023Z,6.42
2019-02-26T23:49:49.343Z,6.34
2019-02-26T23:52:18.655Z,6.37
2019-02-26T23:54:47.976Z,6.34
2019-02-26T23:57:17.295Z,6.26
2019-02-26T23:59:46.607Z,6.32
